sensor_id;sensor_type;location;lat;lon;timestamp;pressure;altitude;pressure_sealevel;temperature;humidity
44441;BME280;30146;52.268;20.944;2023-05-01T00:00:49;100941.39;;;7.71;47.28
44441;BME280;30146;52.268;20.944;2023-05-01T00:03:20;100943.05;;;7.68;47.36
44441;BME280;30146;52.268;20.944;2023-05-01T00:05:57;100941.51;;;7.68;47.50
44441;BME280;30146;52.268;20.944;2023-05-01T00:08:28;100944.05;;;7.68;47.46
44441;BME280;30146;52.268;20.944;2023-05-01T00:11:04;100947.61;;;7.65;47.43
44441;BME280;30146;52.268;20.944;2023-05-01T00:13:38;100944.33;;;7.62;47.62
44441;BME280;30146;52.268;20.944;2023-05-01T00:16:10;100947.36;;;7.60;47.66
44441;BME280;30146;52.268;20.944;2023-05-01T00:18:41;100949.71;;;7.56;47.66
44441;BME280;30146;52.268;20.944;2023-05-01T00:21:12;100945.92;;;7.54;47.72
44441;BME280;30146;52.268;20.944;2023-05-01T00:23:43;100942.14;;;7.50;47.74
44441;BME280;30146;52.268;20.944;2023-05-01T00:26:14;100940.41;;;7.48;47.96
44441;BME280;30146;52.268;20.944;2023-05-01T00:28:46;100946.52;;;7.46;48.11
44441;BME280;30146;52.268;20.944;2023-05-01T00:31:18;100950.25;;;7.45;48.15
44441;BME280;30146;52.268;20.944;2023-05-01T00:33:49;100951.23;;;7.43;48.16
44441;BME280;30146;52.268;20.944;2023-05-01T00:36:21;100948.15;;;7.41;48.14
44441;BME280;30146;52.268;20.944;2023-05-01T00:38:52;100947.95;;;7.39;48.29
44441;BME280;30146;52.268;20.944;2023-05-01T00:41:23;100946.20;;;7.36;48.35
44441;BME280;30146;52.268;20.944;2023-05-01T00:43:53;100944.30;;;7.33;48.44
44441;BME280;30146;52.268;20.944;2023-05-01T00:46:25;100942.73;;;7.31;48.46
44441;BME280;30146;52.268;20.944;2023-05-01T00:48:57;100944.44;;;7.30;48.62
44441;BME280;30146;52.268;20.944;2023-05-01T00:51:29;100949.35;;;7.30;48.84
44441;BME280;30146;52.268;20.944;2023-05-01T00:54:02;100949.17;;;7.29;48.80
44441;BME280;30146;52.268;20.944;2023-05-01T00:56:35;100948.64;;;7.27;48.86
44441;BME280;30146;52.268;20.944;2023-05-01T00:59:07;100946.41;;;7.26;48.93
44441;BME280;30146;52.268;20.944;2023-05-01T01:01:38;100948.42;;;7.25;48.94
44441;BME280;30146;52.268;20.944;2023-05-01T01:04:11;100948.23;;;7.23;49.06
44441;BME280;30146;52.268;20.944;2023-05-01T01:06:48;100949.42;;;7.23;49.13
44441;BME280;30146;52.268;20.944;2023-05-01T01:09:30;100949.77;;;7.22;49.20
44441;BME280;30146;52.268;20.944;2023-05-01T01:12:11;100949.75;;;7.22;49.29
44441;BME280;30146;52.268;20.944;2023-05-01T01:14:52;100946.02;;;7.22;49.30
44441;BME280;30146;52.268;20.944;2023-05-01T01:17:29;100946.68;;;7.21;49.23
44441;BME280;30146;52.268;20.944;2023-05-01T01:20:21;100943.59;;;7.19;49.21
44441;BME280;30146;52.268;20.944;2023-05-01T01:23:03;100944.56;;;7.16;49.21
44441;BME280;30146;52.268;20.944;2023-05-01T01:25:54;100941.62;;;7.12;49.31
44441;BME280;30146;52.268;20.944;2023-05-01T01:28:55;100947.90;;;7.10;49.48
44441;BME280;30146;52.268;20.944;2023-05-01T01:31:35;100948.05;;;7.09;49.47
44441;BME280;30146;52.268;20.944;2023-05-01T01:34:13;100949.20;;;7.07;49.57
44441;BME280;30146;52.268;20.944;2023-05-01T01:36:50;100950.04;;;7.06;49.67
44441;BME280;30146;52.268;20.944;2023-05-01T01:39:32;100951.72;;;7.04;49.60
44441;BME280;30146;52.268;20.944;2023-05-01T01:42:09;100953.71;;;7.02;49.64
44441;BME280;30146;52.268;20.944;2023-05-01T01:44:46;100955.21;;;7.00;49.88
44441;BME280;30146;52.268;20.944;2023-05-01T01:47:15;100959.79;;;6.99;49.99
44441;BME280;30146;52.268;20.944;2023-05-01T01:49:50;100959.11;;;6.98;50.05
44441;BME280;30146;52.268;20.944;2023-05-01T01:52:22;100960.98;;;6.99;50.24
44441;BME280;30146;52.268;20.944;2023-05-01T01:54:55;100960.98;;;6.98;50.17
44441;BME280;30146;52.268;20.944;2023-05-01T01:57:29;100960.30;;;6.99;50.30
44441;BME280;30146;52.268;20.944;2023-05-01T02:00:01;100961.49;;;6.99;50.33
44441;BME280;30146;52.268;20.944;2023-05-01T02:02:41;100958.40;;;6.97;50.35
44441;BME280;30146;52.268;20.944;2023-05-01T02:05:15;100957.21;;;6.97;50.36
44441;BME280;30146;52.268;20.944;2023-05-01T02:07:48;100956.87;;;6.96;50.42
44441;BME280;30146;52.268;20.944;2023-05-01T02:10:21;100955.32;;;6.95;50.47
44441;BME280;30146;52.268;20.944;2023-05-01T02:12:55;100956.48;;;6.94;50.55
44441;BME280;30146;52.268;20.944;2023-05-01T02:15:28;100958.33;;;6.92;50.35
44441;BME280;30146;52.268;20.944;2023-05-01T02:18:02;100954.71;;;6.88;50.28
44441;BME280;30146;52.268;20.944;2023-05-01T02:20:33;100954.97;;;6.84;50.35
44441;BME280;30146;52.268;20.944;2023-05-01T02:23:07;100952.36;;;6.80;50.47
44441;BME280;30146;52.268;20.944;2023-05-01T02:25:40;100956.40;;;6.77;50.66
44441;BME280;30146;52.268;20.944;2023-05-01T02:28:13;100956.17;;;6.74;50.70
44441;BME280;30146;52.268;20.944;2023-05-01T02:30:45;100958.52;;;6.71;50.79
44441;BME280;30146;52.268;20.944;2023-05-01T02:33:16;100959.83;;;6.68;50.73
44441;BME280;30146;52.268;20.944;2023-05-01T02:35:46;100962.48;;;6.64;50.72
44441;BME280;30146;52.268;20.944;2023-05-01T02:38:18;100963.25;;;6.60;50.77
44441;BME280;30146;52.268;20.944;2023-05-01T02:40:52;100964.74;;;6.57;50.76
44441;BME280;30146;52.268;20.944;2023-05-01T02:43:25;100963.52;;;6.55;50.75
44441;BME280;30146;52.268;20.944;2023-05-01T02:45:58;100961.45;;;6.53;50.91
44441;BME280;30146;52.268;20.944;2023-05-01T02:48:32;100956.85;;;6.53;51.20
44441;BME280;30146;52.268;20.944;2023-05-01T02:51:05;100957.73;;;6.55;51.15
44441;BME280;30146;52.268;20.944;2023-05-01T02:53:36;100961.46;;;6.54;51.34
44441;BME280;30146;52.268;20.944;2023-05-01T02:56:16;100956.34;;;6.53;51.29
44441;BME280;30146;52.268;20.944;2023-05-01T02:58:48;100953.64;;;6.53;51.49
44441;BME280;30146;52.268;20.944;2023-05-01T03:01:18;100954.98;;;6.53;51.50
44441;BME280;30146;52.268;20.944;2023-05-01T03:03:50;100958.18;;;6.51;51.28
44441;BME280;30146;52.268;20.944;2023-05-01T03:06:21;100958.44;;;6.47;51.07
44441;BME280;30146;52.268;20.944;2023-05-01T03:08:52;100960.10;;;6.44;51.28
44441;BME280;30146;52.268;20.944;2023-05-01T03:11:23;100962.11;;;6.42;51.22
44441;BME280;30146;52.268;20.944;2023-05-01T03:13:54;100959.70;;;6.41;51.49
44441;BME280;30146;52.268;20.944;2023-05-01T03:16:25;100961.94;;;6.42;51.78
44441;BME280;30146;52.268;20.944;2023-05-01T03:18:56;100960.08;;;6.43;51.83
44441;BME280;30146;52.268;20.944;2023-05-01T03:21:27;100957.34;;;6.42;51.68
44441;BME280;30146;52.268;20.944;2023-05-01T03:23:58;100958.52;;;6.41;51.61
44441;BME280;30146;52.268;20.944;2023-05-01T03:26:29;100960.53;;;6.40;51.41
44441;BME280;30146;52.268;20.944;2023-05-01T03:29:01;100959.64;;;6.37;51.40
44441;BME280;30146;52.268;20.944;2023-05-01T03:31:32;100962.20;;;6.38;51.52
44441;BME280;30146;52.268;20.944;2023-05-01T03:34:03;100957.14;;;6.40;51.85
44441;BME280;30146;52.268;20.944;2023-05-01T03:36:34;100952.59;;;6.42;51.63
44441;BME280;30146;52.268;20.944;2023-05-01T03:39:06;100953.63;;;6.43;52.00
44441;BME280;30146;52.268;20.944;2023-05-01T03:42:00;100954.00;;;6.45;51.89
44441;BME280;30146;52.268;20.944;2023-05-01T03:44:37;100958.62;;;6.47;51.84
44441;BME280;30146;52.268;20.944;2023-05-01T03:47:08;100955.35;;;6.45;51.79
44441;BME280;30146;52.268;20.944;2023-05-01T03:49:42;100953.35;;;6.47;51.82
44441;BME280;30146;52.268;20.944;2023-05-01T03:52:13;100953.96;;;6.53;51.81
44441;BME280;30146;52.268;20.944;2023-05-01T03:54:45;100957.19;;;6.63;52.04
44441;BME280;30146;52.268;20.944;2023-05-01T03:57:24;100953.55;;;6.79;52.03
44441;BME280;30146;52.268;20.944;2023-05-01T03:59:55;100954.92;;;7.04;52.05
44441;BME280;30146;52.268;20.944;2023-05-01T04:02:26;100951.88;;;7.40;51.95
44441;BME280;30146;52.268;20.944;2023-05-01T04:04:58;100951.39;;;7.83;51.72
44441;BME280;30146;52.268;20.944;2023-05-01T04:07:30;100951.25;;;8.35;51.38
44441;BME280;30146;52.268;20.944;2023-05-01T04:10:01;100946.96;;;8.92;50.84
44441;BME280;30146;52.268;20.944;2023-05-01T04:12:33;100950.91;;;9.55;50.45
44441;BME280;30146;52.268;20.944;2023-05-01T04:15:05;100953.69;;;10.20;49.69
44441;BME280;30146;52.268;20.944;2023-05-01T04:17:37;100952.55;;;10.86;49.20
44441;BME280;30146;52.268;20.944;2023-05-01T04:20:09;100952.91;;;11.50;48.49
44441;BME280;30146;52.268;20.944;2023-05-01T04:22:41;100948.35;;;12.16;47.71
44441;BME280;30146;52.268;20.944;2023-05-01T04:25:12;100942.39;;;12.79;47.00
44441;BME280;30146;52.268;20.944;2023-05-01T04:27:43;100942.44;;;13.44;46.40
44441;BME280;30146;52.268;20.944;2023-05-01T04:30:14;100943.52;;;14.06;45.40
44441;BME280;30146;52.268;20.944;2023-05-01T04:32:45;100938.08;;;14.59;44.34
44441;BME280;30146;52.268;20.944;2023-05-01T04:35:16;100937.75;;;15.17;43.84
44441;BME280;30146;52.268;20.944;2023-05-01T04:37:47;100938.26;;;15.79;43.20
44441;BME280;30146;52.268;20.944;2023-05-01T04:40:18;100939.37;;;16.37;42.53
44441;BME280;30146;52.268;20.944;2023-05-01T04:42:49;100940.06;;;16.94;41.92
44441;BME280;30146;52.268;20.944;2023-05-01T04:45:20;100937.23;;;17.53;41.56
44441;BME280;30146;52.268;20.944;2023-05-01T04:47:51;100935.65;;;18.12;40.89
44441;BME280;30146;52.268;20.944;2023-05-01T04:50:22;100934.34;;;18.64;40.10
44441;BME280;30146;52.268;20.944;2023-05-01T04:52:53;100931.97;;;19.18;39.65
44441;BME280;30146;52.268;20.944;2023-05-01T04:55:24;100935.77;;;19.71;38.93
44441;BME280;30146;52.268;20.944;2023-05-01T04:58:04;100930.66;;;20.18;38.12
44441;BME280;30146;52.268;20.944;2023-05-01T05:00:36;100924.88;;;20.58;37.57
44441;BME280;30146;52.268;20.944;2023-05-01T05:03:08;100924.80;;;20.93;36.98
44441;BME280;30146;52.268;20.944;2023-05-01T05:05:39;100924.52;;;21.23;36.03
44441;BME280;30146;52.268;20.944;2023-05-01T05:08:10;100924.20;;;21.46;35.19
44441;BME280;30146;52.268;20.944;2023-05-01T05:10:43;100924.41;;;21.76;34.60
44441;BME280;30146;52.268;20.944;2023-05-01T05:13:46;100919.40;;;22.18;33.75
44441;BME280;30146;52.268;20.944;2023-05-01T05:16:17;100919.15;;;22.49;33.05
44441;BME280;30146;52.268;20.944;2023-05-01T05:18:48;100920.30;;;22.95;33.26
44441;BME280;30146;52.268;20.944;2023-05-01T05:21:19;100924.75;;;23.50;33.00
44441;BME280;30146;52.268;20.944;2023-05-01T05:23:53;100921.67;;;23.97;32.54
44441;BME280;30146;52.268;20.944;2023-05-01T05:26:24;100917.63;;;24.43;32.31
44441;BME280;30146;52.268;20.944;2023-05-01T05:28:59;100914.29;;;24.88;31.54
44441;BME280;30146;52.268;20.944;2023-05-01T05:31:31;100918.31;;;25.23;31.28
44441;BME280;30146;52.268;20.944;2023-05-01T05:34:01;100915.30;;;25.49;30.37
44441;BME280;30146;52.268;20.944;2023-05-01T05:36:32;100914.92;;;25.72;29.83
44441;BME280;30146;52.268;20.944;2023-05-01T05:39:04;100912.51;;;25.90;29.06
44441;BME280;30146;52.268;20.944;2023-05-01T05:41:35;100915.23;;;26.05;28.35
44441;BME280;30146;52.268;20.944;2023-05-01T05:44:06;100913.33;;;26.29;28.57
44441;BME280;30146;52.268;20.944;2023-05-01T05:46:37;100914.55;;;26.53;27.99
44441;BME280;30146;52.268;20.944;2023-05-01T05:49:08;100917.05;;;26.65;27.49
44441;BME280;30146;52.268;20.944;2023-05-01T05:51:39;100915.37;;;26.77;27.57
44441;BME280;30146;52.268;20.944;2023-05-01T05:54:11;100917.41;;;26.99;27.09
44441;BME280;30146;52.268;20.944;2023-05-01T05:56:43;100918.92;;;27.04;26.27
44441;BME280;30146;52.268;20.944;2023-05-01T05:59:14;100921.83;;;27.00;25.26
44441;BME280;30146;52.268;20.944;2023-05-01T06:04:40;100918.70;;;26.62;24.47
44441;BME280;30146;52.268;20.944;2023-05-01T06:07:12;100919.06;;;26.61;24.36
44441;BME280;30146;52.268;20.944;2023-05-01T06:09:43;100925.91;;;26.56;24.14
44441;BME280;30146;52.268;20.944;2023-05-01T06:12:14;100923.37;;;26.63;24.42
44441;BME280;30146;52.268;20.944;2023-05-01T06:14:46;100926.65;;;26.79;24.14
44441;BME280;30146;52.268;20.944;2023-05-01T06:17:17;100925.00;;;26.93;24.17
44441;BME280;30146;52.268;20.944;2023-05-01T06:19:48;100924.41;;;27.19;24.11
44441;BME280;30146;52.268;20.944;2023-05-01T06:22:21;100925.12;;;27.27;23.67
44441;BME280;30146;52.268;20.944;2023-05-01T06:25:10;100928.17;;;27.34;23.33
44441;BME280;30146;52.268;20.944;2023-05-01T06:27:41;100933.14;;;27.30;22.97
44441;BME280;30146;52.268;20.944;2023-05-01T06:30:12;100931.58;;;27.40;23.09
44441;BME280;30146;52.268;20.944;2023-05-01T06:32:43;100933.76;;;27.68;23.28
44441;BME280;30146;52.268;20.944;2023-05-01T06:35:15;100937.37;;;27.89;22.53
44441;BME280;30146;52.268;20.944;2023-05-01T06:37:54;100933.10;;;27.90;22.00
44441;BME280;30146;52.268;20.944;2023-05-01T06:40:27;100935.35;;;28.07;22.05
44441;BME280;30146;52.268;20.944;2023-05-01T06:43:00;100936.75;;;28.29;21.90
44441;BME280;30146;52.268;20.944;2023-05-01T06:45:30;100931.56;;;28.51;21.79
44441;BME280;30146;52.268;20.944;2023-05-01T06:48:01;100936.77;;;28.75;21.59
44441;BME280;30146;52.268;20.944;2023-05-01T06:50:32;100936.77;;;28.85;21.13
44441;BME280;30146;52.268;20.944;2023-05-01T06:53:03;100928.06;;;28.79;20.57
44441;BME280;30146;52.268;20.944;2023-05-01T06:55:34;100927.14;;;28.74;20.77
44441;BME280;30146;52.268;20.944;2023-05-01T06:58:05;100926.45;;;28.77;20.70
44441;BME280;30146;52.268;20.944;2023-05-01T07:00:52;100922.54;;;28.80;20.53
44441;BME280;30146;52.268;20.944;2023-05-01T07:03:25;100922.48;;;28.90;20.58
44441;BME280;30146;52.268;20.944;2023-05-01T07:05:56;100920.67;;;29.13;20.82
44441;BME280;30146;52.268;20.944;2023-05-01T07:08:30;100921.18;;;29.40;20.89
44441;BME280;30146;52.268;20.944;2023-05-01T07:11:01;100916.04;;;29.69;20.94
44441;BME280;30146;52.268;20.944;2023-05-01T07:13:32;100917.06;;;29.96;20.89
44441;BME280;30146;52.268;20.944;2023-05-01T07:16:03;100915.93;;;30.07;20.38
44441;BME280;30146;52.268;20.944;2023-05-01T07:18:33;100915.52;;;30.10;20.49
44441;BME280;30146;52.268;20.944;2023-05-01T07:21:08;100908.70;;;29.88;20.22
44441;BME280;30146;52.268;20.944;2023-05-01T07:23:40;100909.92;;;29.31;20.28
44441;BME280;30146;52.268;20.944;2023-05-01T07:26:11;100912.05;;;28.76;20.43
44441;BME280;30146;52.268;20.944;2023-05-01T07:28:41;100911.50;;;28.16;20.73
44441;BME280;30146;52.268;20.944;2023-05-01T07:31:12;100915.34;;;27.63;21.01
44441;BME280;30146;52.268;20.944;2023-05-01T07:33:44;100914.01;;;27.02;20.85
44441;BME280;30146;52.268;20.944;2023-05-01T07:36:16;100915.17;;;26.56;21.60
44441;BME280;30146;52.268;20.944;2023-05-01T07:38:49;100914.42;;;26.04;21.26
44441;BME280;30146;52.268;20.944;2023-05-01T07:41:19;100916.48;;;25.44;21.33
44441;BME280;30146;52.268;20.944;2023-05-01T07:43:51;100917.14;;;24.96;21.58
44441;BME280;30146;52.268;20.944;2023-05-01T07:46:22;100917.36;;;24.32;21.59
44441;BME280;30146;52.268;20.944;2023-05-01T07:48:53;100916.90;;;23.79;21.93
44441;BME280;30146;52.268;20.944;2023-05-01T07:51:23;100915.70;;;23.40;22.46
44441;BME280;30146;52.268;20.944;2023-05-01T07:53:54;100915.47;;;23.11;22.91
44441;BME280;30146;52.268;20.944;2023-05-01T07:56:25;100913.34;;;22.91;23.24
44441;BME280;30146;52.268;20.944;2023-05-01T07:58:55;100911.63;;;22.80;23.52
44441;BME280;30146;52.268;20.944;2023-05-01T08:01:26;100913.45;;;22.69;23.76
44441;BME280;30146;52.268;20.944;2023-05-01T08:03:57;100909.59;;;22.69;24.03
44441;BME280;30146;52.268;20.944;2023-05-01T08:06:28;100910.13;;;22.72;24.25
44441;BME280;30146;52.268;20.944;2023-05-01T08:09:00;100909.73;;;22.83;24.61
44441;BME280;30146;52.268;20.944;2023-05-01T08:11:31;100909.11;;;22.85;24.13
44441;BME280;30146;52.268;20.944;2023-05-01T08:14:02;100912.39;;;22.76;24.00
44441;BME280;30146;52.268;20.944;2023-05-01T08:26:03;100911.02;;;22.51;24.52
44441;BME280;30146;52.268;20.944;2023-05-01T08:28:58;100912.41;;;22.44;24.45
44441;BME280;30146;52.268;20.944;2023-05-01T08:31:29;100909.35;;;22.29;24.23
44441;BME280;30146;52.268;20.944;2023-05-01T08:34:23;100915.06;;;22.04;23.96
44441;BME280;30146;52.268;20.944;2023-05-01T08:36:59;100913.98;;;21.68;24.25
44441;BME280;30146;52.268;20.944;2023-05-01T08:39:30;100912.40;;;21.53;24.62
44441;BME280;30146;52.268;20.944;2023-05-01T08:42:03;100909.77;;;21.42;24.87
44441;BME280;30146;52.268;20.944;2023-05-01T08:44:56;100912.42;;;21.25;24.61
44441;BME280;30146;52.268;20.944;2023-05-01T08:47:45;100912.90;;;21.10;24.87
44441;BME280;30146;52.268;20.944;2023-05-01T08:50:46;100906.11;;;21.11;25.44
44441;BME280;30146;52.268;20.944;2023-05-01T08:53:21;100907.39;;;21.21;25.53
44441;BME280;30146;52.268;20.944;2023-05-01T08:56:02;100909.92;;;21.23;25.14
44441;BME280;30146;52.268;20.944;2023-05-01T08:58:35;100904.27;;;21.09;25.16
44441;BME280;30146;52.268;20.944;2023-05-01T09:01:07;100904.05;;;21.10;25.71
44441;BME280;30146;52.268;20.944;2023-05-01T09:03:39;100904.02;;;21.19;25.81
44441;BME280;30146;52.268;20.944;2023-05-01T09:49:49;100863.18;;;21.45;24.01
44441;BME280;30146;52.268;20.944;2023-05-01T09:53:07;100859.35;;;21.19;23.91
44441;BME280;30146;52.268;20.944;2023-05-01T09:55:40;100859.84;;;20.96;24.02
44441;BME280;30146;52.268;20.944;2023-05-01T09:58:29;100865.98;;;20.87;23.95
44441;BME280;30146;52.268;20.944;2023-05-01T10:01:18;100858.91;;;20.65;23.92
44441;BME280;30146;52.268;20.944;2023-05-01T10:13:16;100840.55;;;20.55;25.28
44441;BME280;30146;52.268;20.944;2023-05-01T10:15:47;100840.98;;;20.62;24.78
44441;BME280;30146;52.268;20.944;2023-05-01T10:18:18;100840.20;;;20.47;24.24
44441;BME280;30146;52.268;20.944;2023-05-01T10:51:09;100804.30;;;20.94;25.15
44441;BME280;30146;52.268;20.944;2023-05-01T10:57:46;100798.48;;;20.61;25.05
44441;BME280;30146;52.268;20.944;2023-05-01T11:00:19;100799.52;;;20.53;25.04
44441;BME280;30146;52.268;20.944;2023-05-01T11:11:51;100792.46;;;19.85;24.99
44441;BME280;30146;52.268;20.944;2023-05-01T11:14:22;100791.97;;;19.80;25.36
44441;BME280;30146;52.268;20.944;2023-05-01T11:16:53;100788.39;;;19.74;25.42
44441;BME280;30146;52.268;20.944;2023-05-01T11:37:49;100764.63;;;19.61;25.39
44441;BME280;30146;52.268;20.944;2023-05-01T11:40:33;100761.29;;;19.31;24.98
44441;BME280;30146;52.268;20.944;2023-05-01T11:43:08;100755.36;;;19.05;24.95
44441;BME280;30146;52.268;20.944;2023-05-01T11:49:20;100754.45;;;18.73;25.49
44441;BME280;30146;52.268;20.944;2023-05-01T11:51:59;100748.86;;;18.64;25.51
44441;BME280;30146;52.268;20.944;2023-05-01T11:58:02;100740.16;;;18.56;25.84
44441;BME280;30146;52.268;20.944;2023-05-01T12:00:38;100738.49;;;18.45;25.38
44441;BME280;30146;52.268;20.944;2023-05-01T12:03:41;100737.41;;;18.36;25.31
44441;BME280;30146;52.268;20.944;2023-05-01T12:06:13;100736.48;;;18.28;25.59
44441;BME280;30146;52.268;20.944;2023-05-01T12:09:21;100735.17;;;18.21;25.65
44441;BME280;30146;52.268;20.944;2023-05-01T12:14:40;100730.75;;;18.09;25.76
44441;BME280;30146;52.268;20.944;2023-05-01T12:17:15;100733.09;;;18.07;25.75
44441;BME280;30146;52.268;20.944;2023-05-01T12:19:50;100728.15;;;17.99;25.86
44441;BME280;30146;52.268;20.944;2023-05-01T12:22:22;100721.41;;;17.94;26.01
44441;BME280;30146;52.268;20.944;2023-05-01T12:24:53;100715.36;;;17.88;26.01
44441;BME280;30146;52.268;20.944;2023-05-01T12:27:24;100709.70;;;17.87;26.20
44441;BME280;30146;52.268;20.944;2023-05-01T12:29:55;100708.77;;;17.83;26.14
44441;BME280;30146;52.268;20.944;2023-05-01T12:32:31;100705.14;;;17.83;26.32
44441;BME280;30146;52.268;20.944;2023-05-01T12:35:12;100704.70;;;17.86;26.54
44441;BME280;30146;52.268;20.944;2023-05-01T12:37:46;100704.46;;;17.89;26.47
44441;BME280;30146;52.268;20.944;2023-05-01T12:40:17;100705.48;;;17.89;26.31
44441;BME280;30146;52.268;20.944;2023-05-01T12:42:55;100700.49;;;17.83;25.98
44441;BME280;30146;52.268;20.944;2023-05-01T12:45:26;100694.30;;;17.77;25.96
44441;BME280;30146;52.268;20.944;2023-05-01T12:47:57;100688.73;;;17.78;26.06
44441;BME280;30146;52.268;20.944;2023-05-01T12:50:28;100687.53;;;17.77;25.99
44441;BME280;30146;52.268;20.944;2023-05-01T12:53:05;100687.05;;;17.76;25.82
44441;BME280;30146;52.268;20.944;2023-05-01T12:55:45;100676.70;;;17.70;25.69
44441;BME280;30146;52.268;20.944;2023-05-01T12:58:22;100672.95;;;17.68;26.00
44441;BME280;30146;52.268;20.944;2023-05-01T13:00:54;100674.39;;;17.72;26.32
44441;BME280;30146;52.268;20.944;2023-05-01T13:03:41;100673.52;;;17.73;25.91
44441;BME280;30146;52.268;20.944;2023-05-01T13:06:13;100671.11;;;17.72;26.08
44441;BME280;30146;52.268;20.944;2023-05-01T13:08:49;100664.70;;;17.72;26.07
44441;BME280;30146;52.268;20.944;2023-05-01T13:11:32;100655.30;;;17.74;26.14
44441;BME280;30146;52.268;20.944;2023-05-01T13:14:07;100655.42;;;17.76;26.30
44441;BME280;30146;52.268;20.944;2023-05-01T13:16:51;100651.65;;;17.75;26.08
44441;BME280;30146;52.268;20.944;2023-05-01T13:19:28;100647.59;;;17.72;25.91
44441;BME280;30146;52.268;20.944;2023-05-01T13:22:00;100648.99;;;17.66;26.08
44441;BME280;30146;52.268;20.944;2023-05-01T13:24:38;100643.90;;;17.64;26.16
44441;BME280;30146;52.268;20.944;2023-05-01T13:27:19;100643.25;;;17.62;26.17
44441;BME280;30146;52.268;20.944;2023-05-01T13:29:53;100636.30;;;17.58;26.16
44441;BME280;30146;52.268;20.944;2023-05-01T13:32:26;100637.93;;;17.56;26.28
44441;BME280;30146;52.268;20.944;2023-05-01T13:35:01;100635.36;;;17.56;26.26
44441;BME280;30146;52.268;20.944;2023-05-01T13:37:33;100633.92;;;17.57;26.23
44441;BME280;30146;52.268;20.944;2023-05-01T13:41:18;100632.20;;;17.57;26.04
44441;BME280;30146;52.268;20.944;2023-05-01T13:43:50;100627.66;;;17.53;25.98
44441;BME280;30146;52.268;20.944;2023-05-01T13:46:23;100628.20;;;17.52;25.83
44441;BME280;30146;52.268;20.944;2023-05-01T13:48:55;100627.84;;;17.53;25.85
44441;BME280;30146;52.268;20.944;2023-05-01T13:51:27;100622.14;;;17.53;26.05
44441;BME280;30146;52.268;20.944;2023-05-01T13:54:05;100621.11;;;17.58;26.34
44441;BME280;30146;52.268;20.944;2023-05-01T13:56:40;100617.20;;;17.61;26.16
44441;BME280;30146;52.268;20.944;2023-05-01T13:59:11;100610.55;;;17.63;26.20
44441;BME280;30146;52.268;20.944;2023-05-01T14:01:45;100613.16;;;17.63;25.88
44441;BME280;30146;52.268;20.944;2023-05-01T14:04:18;100610.05;;;17.58;25.62
44441;BME280;30146;52.268;20.944;2023-05-01T14:06:51;100609.66;;;17.54;25.71
44441;BME280;30146;52.268;20.944;2023-05-01T14:09:24;100606.50;;;17.50;25.51
44441;BME280;30146;52.268;20.944;2023-05-01T14:11:58;100601.06;;;17.47;25.47
44441;BME280;30146;52.268;20.944;2023-05-01T14:14:29;100601.08;;;17.47;25.46
44441;BME280;30146;52.268;20.944;2023-05-01T14:17:03;100601.79;;;17.46;25.45
44441;BME280;30146;52.268;20.944;2023-05-01T14:19:34;100604.15;;;17.43;25.13
44441;BME280;30146;52.268;20.944;2023-05-01T14:22:07;100597.88;;;17.40;25.12
44441;BME280;30146;52.268;20.944;2023-05-01T14:24:51;100595.85;;;17.33;25.24
44441;BME280;30146;52.268;20.944;2023-05-01T14:27:22;100592.63;;;17.31;25.53
44441;BME280;30146;52.268;20.944;2023-05-01T14:29:55;100585.88;;;17.31;25.76
44441;BME280;30146;52.268;20.944;2023-05-01T14:32:26;100581.64;;;17.35;25.80
44441;BME280;30146;52.268;20.944;2023-05-01T14:35:07;100573.59;;;17.37;25.88
44441;BME280;30146;52.268;20.944;2023-05-01T14:41:21;100566.25;;;17.50;26.11
44441;BME280;30146;52.268;20.944;2023-05-01T14:43:52;100567.48;;;17.54;26.08
44441;BME280;30146;52.268;20.944;2023-05-01T14:49:20;100569.17;;;17.60;26.32
44441;BME280;30146;52.268;20.944;2023-05-01T14:51:54;100564.55;;;17.64;26.44
44441;BME280;30146;52.268;20.944;2023-05-01T14:54:25;100563.08;;;17.66;26.40
44441;BME280;30146;52.268;20.944;2023-05-01T14:56:56;100564.52;;;17.70;26.36
44441;BME280;30146;52.268;20.944;2023-05-01T15:00:00;100558.72;;;17.73;26.32
44441;BME280;30146;52.268;20.944;2023-05-01T15:02:31;100553.00;;;17.73;26.27
44441;BME280;30146;52.268;20.944;2023-05-01T15:05:02;100549.58;;;17.72;26.18
44441;BME280;30146;52.268;20.944;2023-05-01T15:07:33;100544.88;;;17.72;26.43
44441;BME280;30146;52.268;20.944;2023-05-01T15:10:04;100542.61;;;17.73;26.29
44441;BME280;30146;52.268;20.944;2023-05-01T15:12:41;100540.95;;;17.71;26.14
44441;BME280;30146;52.268;20.944;2023-05-01T15:15:12;100541.75;;;17.68;26.11
44441;BME280;30146;52.268;20.944;2023-05-01T15:17:43;100538.05;;;17.65;25.86
44441;BME280;30146;52.268;20.944;2023-05-01T15:20:14;100534.51;;;17.63;25.90
44441;BME280;30146;52.268;20.944;2023-05-01T15:22:45;100526.88;;;17.59;25.85
44441;BME280;30146;52.268;20.944;2023-05-01T15:25:15;100521.95;;;17.56;25.77
44441;BME280;30146;52.268;20.944;2023-05-01T15:27:55;100521.85;;;17.54;25.96
44441;BME280;30146;52.268;20.944;2023-05-01T15:30:26;100521.52;;;17.54;26.06
44441;BME280;30146;52.268;20.944;2023-05-01T15:32:57;100524.41;;;17.55;26.09
44441;BME280;30146;52.268;20.944;2023-05-01T15:35:28;100519.74;;;17.55;26.11
44441;BME280;30146;52.268;20.944;2023-05-01T15:37:59;100516.80;;;17.56;26.11
44441;BME280;30146;52.268;20.944;2023-05-01T15:40:32;100512.79;;;17.57;26.14
44441;BME280;30146;52.268;20.944;2023-05-01T15:43:04;100507.80;;;17.56;26.15